createdAt,value
2023-06-19T00:00:07.322Z,56.16
2023-06-19T00:00:23.418Z,56.2
2023-06-19T00:00:39.185Z,56.48
2023-06-19T00:00:55.361Z,56.5
2023-06-19T00:01:11.532Z,56.62
2023-06-19T00:01:27.636Z,56.5
2023-06-19T00:01:43.799Z,56.61
2023-06-19T00:01:59.956Z,56.62
2023-06-19T00:02:16.207Z,56.43
2023-06-19T00:02:32.240Z,56.41
2023-06-19T00:02:48.362Z,56.49
2023-06-19T00:03:04.550Z,56.48
2023-06-19T00:03:20.648Z,56.54
2023-06-19T00:03:36.822Z,56.42
2023-06-19T00:03:52.993Z,56.55
2023-06-19T00:04:09.103Z,56.62
2023-06-19T00:04:25.377Z,56.63
2023-06-19T00:04:41.364Z,56.54
2023-06-19T00:04:57.537Z,56.49
2023-06-19T00:05:13.666Z,56.41
2023-06-19T00:05:29.797Z,56.39
2023-06-19T00:05:45.975Z,56.65
2023-06-19T00:06:02.141Z,56.73
2023-06-19T00:06:18.250Z,56.71
2023-06-19T00:06:34.396Z,56.66
2023-06-19T00:06:50.566Z,56.66
2023-06-19T00:07:06.690Z,56.7
2023-06-19T00:07:22.756Z,56.56
2023-06-19T00:07:38.974Z,56.52
2023-06-19T00:07:55.122Z,56.58
2023-06-19T00:08:11.259Z,56.77
2023-06-19T00:08:27.442Z,57.11
2023-06-19T00:08:43.552Z,57.23
2023-06-19T00:08:59.690Z,57.06
2023-06-19T00:09:15.861Z,56.93
2023-06-19T00:09:31.991Z,56.86
2023-06-19T00:09:48.153Z,56.85
2023-06-19T00:10:04.309Z,57.04
2023-06-19T00:10:20.484Z,57.08
2023-06-19T00:10:36.608Z,57
2023-06-19T00:10:52.717Z,57.12
2023-06-19T00:11:08.874Z,57.08
2023-06-19T00:11:25.057Z,57.05
2023-06-19T00:11:41.154Z,56.98
2023-06-19T00:11:57.325Z,56.78
2023-06-19T00:12:13.451Z,56.66
2023-06-19T00:12:29.599Z,56.71
2023-06-19T00:12:45.742Z,56.84
2023-06-19T00:13:01.872Z,56.84
2023-06-19T00:13:18.060Z,56.79
2023-06-19T00:13:34.215Z,56.79
2023-06-19T00:13:50.316Z,56.87
2023-06-19T00:14:06.479Z,56.96
2023-06-19T00:14:22.633Z,57.03
2023-06-19T00:14:38.795Z,56.98
2023-06-19T00:14:54.925Z,56.92
2023-06-19T00:15:11.129Z,56.95
2023-06-19T00:15:27.221Z,56.97
2023-06-19T00:15:43.353Z,57.03
2023-06-19T00:15:59.506Z,57.13
2023-06-19T00:16:15.732Z,57.21
2023-06-19T00:16:31.791Z,57.22
2023-06-19T00:16:47.930Z,57.16
2023-06-19T00:17:04.073Z,57.12
2023-06-19T00:17:20.296Z,57.01
2023-06-19T00:17:36.372Z,57.1
2023-06-19T00:17:52.638Z,57.26
2023-06-19T00:18:08.720Z,57.18
2023-06-19T00:18:24.787Z,56.89
2023-06-19T00:18:41.268Z,56.82
2023-06-19T00:18:57.121Z,56.92
2023-06-19T00:19:13.224Z,57.01
2023-06-19T00:19:29.391Z,56.86
2023-06-19T00:19:45.571Z,56.79
2023-06-19T00:20:01.693Z,56.95
2023-06-19T00:20:17.817Z,57.03
2023-06-19T00:20:33.977Z,57
2023-06-19T00:20:50.105Z,57.02
2023-06-19T00:21:06.249Z,56.9
2023-06-19T00:21:22.399Z,57.02
2023-06-19T00:21:38.536Z,56.9
2023-06-19T00:21:54.685Z,57.22
2023-06-19T00:22:10.838Z,57.33
2023-06-19T00:22:26.969Z,57.27
2023-06-19T00:22:43.150Z,57.28
2023-06-19T00:22:59.264Z,57.24
2023-06-19T00:23:15.413Z,57.28
2023-06-19T00:23:31.595Z,57.35
2023-06-19T00:23:47.698Z,57.33
2023-06-19T00:24:03.946Z,57.35
2023-06-19T00:24:20.045Z,57.46
2023-06-19T00:24:36.280Z,57.64
2023-06-19T00:24:52.298Z,57.66
2023-06-19T00:25:08.456Z,57.62
2023-06-19T00:25:24.586Z,57.65
2023-06-19T00:25:40.726Z,57.47
2023-06-19T00:25:56.880Z,57.32
2023-06-19T00:26:13.007Z,57.3
2023-06-19T00:26:29.176Z,57.04
2023-06-19T00:26:45.324Z,57
2023-06-19T00:27:01.446Z,57.01
2023-06-19T00:27:17.606Z,57.09
2023-06-19T00:27:33.761Z,57.1
2023-06-19T00:27:49.896Z,57.12
2023-06-19T00:28:06.027Z,57.2
2023-06-19T00:28:22.193Z,57.2
2023-06-19T00:28:38.362Z,57.2
2023-06-19T00:28:54.489Z,57.25
2023-06-19T00:29:10.665Z,57.25
2023-06-19T00:29:26.770Z,57.31
2023-06-19T00:29:42.906Z,57.35
2023-06-19T00:29:59.085Z,57.36
2023-06-19T00:30:15.224Z,57.33
2023-06-19T00:30:31.338Z,57.27
2023-06-19T00:30:47.506Z,57.26
2023-06-19T00:31:03.651Z,57.27
2023-06-19T00:31:19.881Z,57.21
2023-06-19T00:31:35.921Z,57.26
2023-06-19T00:31:52.070Z,57.24
2023-06-19T00:32:08.222Z,57.15
2023-06-19T00:32:24.395Z,57.13
2023-06-19T00:32:40.568Z,57.25
2023-06-19T00:32:56.759Z,57.16
2023-06-19T00:33:12.819Z,57.22
2023-06-19T00:33:28.959Z,57.26
2023-06-19T00:33:45.114Z,57.28
2023-06-19T00:34:01.257Z,57.3
2023-06-19T00:34:17.384Z,57.46
2023-06-19T00:34:33.534Z,57.4
2023-06-19T00:34:49.676Z,57.29
2023-06-19T00:35:05.814Z,57.3
2023-06-19T00:35:22.003Z,57.25
2023-06-19T00:35:38.120Z,57.35
2023-06-19T00:35:54.269Z,57.39
2023-06-19T00:36:10.406Z,57.43
2023-06-19T00:36:26.562Z,57.48
2023-06-19T00:36:42.703Z,57.47
2023-06-19T00:36:58.846Z,57.45
2023-06-19T00:37:15.013Z,57.43
2023-06-19T00:37:31.140Z,57.46
2023-06-19T00:37:47.282Z,57.57
2023-06-19T00:38:14.723Z,57.67
2023-06-19T00:38:30.850Z,57.53
2023-06-19T00:38:47.005Z,57.5
2023-06-19T00:39:03.167Z,57.41
2023-06-19T00:39:19.306Z,57.56
2023-06-19T00:39:35.437Z,57.52
2023-06-19T00:39:51.583Z,57.42
2023-06-19T00:40:07.716Z,57.34
2023-06-19T00:40:24.170Z,57.27
2023-06-19T00:40:40.033Z,57.36
2023-06-19T00:40:56.173Z,57.48
2023-06-19T00:41:12.305Z,57.7
2023-06-19T00:41:28.450Z,57.51
2023-06-19T00:41:44.598Z,57.49
2023-06-19T00:42:00.745Z,57.5
2023-06-19T00:42:16.870Z,57.51
2023-06-19T00:42:33.040Z,57.48
2023-06-19T00:42:49.188Z,57.4
2023-06-19T00:43:05.327Z,57.54
2023-06-19T00:43:21.494Z,57.74
2023-06-19T00:43:37.642Z,57.78
2023-06-19T00:43:53.781Z,57.89
2023-06-19T00:44:09.903Z,57.96
2023-06-19T00:44:26.059Z,58.04
2023-06-19T00:44:42.199Z,58
2023-06-19T00:44:58.351Z,57.81
2023-06-19T00:45:14.504Z,57.73
2023-06-19T00:45:30.693Z,57.68
2023-06-19T00:45:46.844Z,57.72
2023-06-19T00:46:03.044Z,57.47
2023-06-19T00:46:19.174Z,57.33
2023-06-19T00:46:35.244Z,57.31
2023-06-19T00:46:51.374Z,57.32
2023-06-19T00:47:07.554Z,57.6
2023-06-19T00:47:23.700Z,57.56
2023-06-19T00:47:39.850Z,57.42
2023-06-19T00:47:55.998Z,57.54
2023-06-19T00:48:12.083Z,57.54
2023-06-19T00:48:28.254Z,57.44
2023-06-19T00:48:44.416Z,57.63
2023-06-19T00:49:00.580Z,57.71
2023-06-19T00:49:16.685Z,57.69
2023-06-19T00:49:32.834Z,57.52
2023-06-19T00:49:48.962Z,57.43
2023-06-19T00:50:05.119Z,57.49
2023-06-19T00:50:21.527Z,57.49
2023-06-19T00:50:37.413Z,57.57
2023-06-19T00:50:53.562Z,57.52
2023-06-19T00:51:09.705Z,57.62
2023-06-19T00:51:25.842Z,57.5
2023-06-19T00:51:41.978Z,57.49
2023-06-19T00:51:58.120Z,57.56
2023-06-19T00:52:14.264Z,57.44
2023-06-19T00:52:30.417Z,57.42
2023-06-19T00:52:46.593Z,57.55
2023-06-19T00:53:02.699Z,57.78
2023-06-19T00:53:18.854Z,57.76
2023-06-19T00:53:34.991Z,57.7
2023-06-19T00:53:51.170Z,57.77
2023-06-19T00:54:07.305Z,57.78
2023-06-19T00:54:23.464Z,57.66
2023-06-19T00:54:39.577Z,57.66
2023-06-19T00:54:55.743Z,57.76
2023-06-19T00:55:11.901Z,57.63
2023-06-19T00:55:28.037Z,57.54
2023-06-19T00:55:44.160Z,57.65
2023-06-19T00:56:00.311Z,57.6
2023-06-19T00:56:16.383Z,57.7
2023-06-19T00:56:32.640Z,57.75
2023-06-19T00:56:48.729Z,57.85
2023-06-19T00:57:04.904Z,57.89
2023-06-19T00:57:21.042Z,57.89
2023-06-19T00:57:37.216Z,57.83
2023-06-19T00:57:53.317Z,57.83
2023-06-19T00:58:09.481Z,57.87
2023-06-19T00:58:25.668Z,57.96
2023-06-19T00:58:41.760Z,58.02
2023-06-19T00:58:57.908Z,57.92
2023-06-19T00:59:14.052Z,58.08
2023-06-19T00:59:30.223Z,58.37
2023-06-19T00:59:46.335Z,58.44
2023-06-19T01:00:02.498Z,58.24
2023-06-19T01:00:18.656Z,58.06
2023-06-19T01:00:34.784Z,57.93
2023-06-19T01:01:03.692Z,57.85
2023-06-19T01:01:09.357Z,57.79
2023-06-19T01:01:23.278Z,57.87
2023-06-19T01:01:39.503Z,57.85
2023-06-19T01:01:55.583Z,58.06
2023-06-19T01:02:11.854Z,58.13
2023-06-19T01:02:27.909Z,58.23
2023-06-19T01:02:44.069Z,58.11
2023-06-19T01:03:00.516Z,58.14
2023-06-19T01:03:18.617Z,58.34
2023-06-19T01:03:32.474Z,58.2
2023-06-19T01:03:48.705Z,58.16
2023-06-19T01:04:04.861Z,58.11
2023-06-19T01:04:20.924Z,58.05
2023-06-19T01:04:37.022Z,58.01
2023-06-19T01:04:53.197Z,58.09
2023-06-19T01:05:09.290Z,58.27
2023-06-19T01:05:25.324Z,58.13
2023-06-19T01:05:41.567Z,58.03
2023-06-19T01:05:57.741Z,57.99
2023-06-19T01:06:13.837Z,58
2023-06-19T01:06:30.026Z,57.66
2023-06-19T01:06:46.146Z,57.72
2023-06-19T01:07:02.275Z,57.76
2023-06-19T01:07:18.442Z,57.76
2023-06-19T01:07:34.577Z,57.88
2023-06-19T01:07:50.722Z,58.09
2023-06-19T01:08:06.874Z,58.37
2023-06-19T01:08:23.024Z,58.25
2023-06-19T01:08:39.177Z,58.2
2023-06-19T01:08:55.309Z,58.07
2023-06-19T01:09:11.451Z,57.98
2023-06-19T01:09:27.598Z,57.93
2023-06-19T01:09:43.742Z,58.26
2023-06-19T01:09:59.904Z,58.34
2023-06-19T01:10:16.035Z,58.12
2023-06-19T01:10:32.174Z,58.12
2023-06-19T01:10:48.324Z,58.06
2023-06-19T01:11:11.710Z,58.23
2023-06-19T01:11:26.831Z,58.21
2023-06-19T01:11:36.801Z,58.08
2023-06-19T01:11:52.909Z,58.07
2023-06-19T01:12:09.059Z,57.98
2023-06-19T01:12:25.189Z,57.94
2023-06-19T01:12:41.343Z,57.94
2023-06-19T01:12:57.483Z,58.25
2023-06-19T01:13:13.665Z,58.31
2023-06-19T01:13:29.789Z,58.22
2023-06-19T01:13:45.918Z,58.27
2023-06-19T01:14:02.077Z,58.31
2023-06-19T01:14:18.229Z,58.37
2023-06-19T01:14:34.365Z,58.17
2023-06-19T01:14:50.517Z,58.01
2023-06-19T01:15:06.666Z,58.13
2023-06-19T01:15:22.799Z,58.17
2023-06-19T01:15:38.979Z,58.07
2023-06-19T01:15:55.103Z,58.09
2023-06-19T01:16:11.250Z,57.93
2023-06-19T01:16:27.443Z,57.93
2023-06-19T01:16:43.604Z,57.91
2023-06-19T01:16:59.754Z,57.85
2023-06-19T01:17:15.841Z,57.92
2023-06-19T01:17:32.019Z,58.03
2023-06-19T01:17:48.200Z,57.94
2023-06-19T01:18:04.350Z,57.81
2023-06-19T01:18:20.430Z,57.96
2023-06-19T01:18:36.562Z,57.93
2023-06-19T01:18:52.621Z,57.9
2023-06-19T01:19:08.832Z,57.82
2023-06-19T01:19:24.967Z,57.73
2023-06-19T01:19:41.111Z,57.73
2023-06-19T01:19:57.268Z,57.78
2023-06-19T01:20:13.410Z,57.97
2023-06-19T01:20:29.612Z,58.03
2023-06-19T01:20:45.705Z,57.97
2023-06-19T01:21:01.868Z,58.13
2023-06-19T01:21:18.002Z,58.25
2023-06-19T01:21:34.157Z,58.23
2023-06-19T01:21:50.290Z,58.15
2023-06-19T01:22:06.468Z,58.01
2023-06-19T01:22:22.580Z,57.87
2023-06-19T01:22:38.725Z,57.9
2023-06-19T01:22:54.885Z,57.98
2023-06-19T01:23:11.053Z,57.98
2023-06-19T01:23:27.298Z,57.89
2023-06-19T01:23:43.322Z,57.94
2023-06-19T01:23:59.501Z,58
2023-06-19T01:24:15.621Z,58.1
2023-06-19T01:24:31.816Z,57.97
2023-06-19T01:24:47.898Z,57.81
2023-06-19T01:25:04.070Z,57.9
2023-06-19T01:25:20.210Z,57.99
2023-06-19T01:25:36.343Z,58.06
2023-06-19T01:25:52.472Z,58.08
2023-06-19T01:26:08.618Z,58.25
2023-06-19T01:26:24.755Z,58.4
2023-06-19T01:26:40.895Z,58.16
2023-06-19T01:26:57.078Z,58.31
2023-06-19T01:27:13.239Z,58.47
2023-06-19T01:27:29.344Z,58.53
2023-06-19T01:27:45.484Z,58.24
2023-06-19T01:28:01.647Z,58.34
2023-06-19T01:28:17.795Z,58.35
2023-06-19T01:28:33.958Z,58.33
2023-06-19T01:28:50.095Z,58.32
2023-06-19T01:29:06.223Z,58.43
2023-06-19T01:29:22.391Z,58.43
2023-06-19T01:29:38.516Z,58.61
2023-06-19T01:29:54.653Z,58.57
2023-06-19T01:30:10.797Z,58.47
2023-06-19T01:30:26.991Z,58.35
2023-06-19T01:30:43.087Z,58.27
2023-06-19T01:30:59.240Z,58.19
2023-06-19T01:31:15.383Z,58.27
2023-06-19T01:31:31.562Z,58.22
2023-06-19T01:31:47.677Z,58.22
2023-06-19T01:32:15.137Z,58.15
2023-06-19T01:32:31.326Z,58.09
2023-06-19T01:32:47.486Z,58.2
2023-06-19T01:33:03.628Z,58.25
2023-06-19T01:33:19.699Z,58.64
2023-06-19T01:33:35.846Z,58.54
2023-06-19T01:33:51.971Z,58.38
2023-06-19T01:34:08.168Z,58.46
2023-06-19T01:34:24.285Z,58.69
2023-06-19T01:34:41.379Z,58.78
2023-06-19T01:34:56.565Z,58.45
2023-06-19T01:35:12.715Z,58.56
2023-06-19T01:35:28.862Z,58.38
2023-06-19T01:35:45.016Z,58.48
2023-06-19T01:36:01.143Z,58.45
2023-06-19T01:36:17.299Z,58.54
2023-06-19T01:36:33.428Z,58.64
2023-06-19T01:36:49.577Z,58.86
2023-06-19T01:37:05.726Z,58.94
2023-06-19T01:37:21.879Z,58.69
2023-06-19T01:37:38.041Z,58.65
2023-06-19T01:37:54.237Z,58.61
2023-06-19T01:38:10.312Z,58.62
2023-06-19T01:38:26.772Z,58.72
2023-06-19T01:38:42.602Z,58.64
2023-06-19T01:38:58.784Z,58.74
2023-06-19T01:39:14.895Z,58.85
2023-06-19T01:39:31.034Z,58.97
2023-06-19T01:39:47.202Z,58.88
2023-06-19T01:40:03.347Z,58.7
2023-06-19T01:40:19.524Z,58.59
2023-06-19T01:40:35.668Z,58.51
2023-06-19T01:40:51.817Z,58.37
2023-06-19T01:41:07.946Z,58.42
2023-06-19T01:41:24.049Z,58.5
2023-06-19T01:41:40.213Z,58.42
2023-06-19T01:41:56.344Z,58.49
2023-06-19T01:42:12.495Z,58.62
2023-06-19T01:42:28.643Z,58.59
2023-06-19T01:42:44.785Z,58.61
2023-06-19T01:43:00.918Z,58.43
2023-06-19T01:43:17.108Z,58.28
2023-06-19T01:43:33.245Z,58.17
2023-06-19T01:43:49.389Z,58.38
2023-06-19T01:44:05.505Z,58.3
2023-06-19T01:44:21.671Z,58.3
2023-06-19T01:44:37.803Z,58.27
2023-06-19T01:44:53.946Z,58.29
2023-06-19T01:45:10.132Z,58.54
2023-06-19T01:45:26.243Z,58.66
2023-06-19T01:45:42.383Z,58.73
2023-06-19T01:45:58.564Z,58.7
2023-06-19T01:46:14.750Z,58.71
2023-06-19T01:46:30.991Z,58.85
2023-06-19T01:46:47.070Z,58.72
2023-06-19T01:47:03.114Z,58.72
2023-06-19T01:47:19.250Z,58.89
2023-06-19T01:47:35.499Z,58.91
2023-06-19T01:47:51.568Z,58.99
2023-06-19T01:48:07.775Z,58.79
2023-06-19T01:48:23.860Z,58.82
2023-06-19T01:48:39.991Z,58.81
2023-06-19T01:48:56.165Z,58.58
2023-06-19T01:49:12.309Z,58.43
2023-06-19T01:49:28.413Z,58.51
2023-06-19T01:49:44.592Z,58.67
2023-06-19T01:50:00.739Z,58.67
2023-06-19T01:50:16.862Z,58.8
2023-06-19T01:50:33.012Z,58.86
2023-06-19T01:50:49.140Z,58.78
2023-06-19T01:51:05.288Z,58.63
2023-06-19T01:51:21.434Z,58.52
2023-06-19T01:51:37.652Z,58.47
2023-06-19T01:51:53.733Z,58.81
2023-06-19T01:52:09.950Z,58.89
2023-06-19T01:52:26.030Z,58.57
2023-06-19T01:52:42.184Z,58.42
2023-06-19T01:52:58.330Z,58.32
2023-06-19T01:53:14.454Z,58.31
2023-06-19T01:53:30.613Z,58.2
2023-06-19T01:53:46.779Z,58.26
2023-06-19T01:54:02.917Z,58.33
2023-06-19T01:54:19.039Z,58.42
2023-06-19T01:54:35.232Z,58.71
2023-06-19T01:54:51.331Z,58.84
2023-06-19T01:55:07.549Z,58.74
2023-06-19T01:55:23.637Z,58.64
2023-06-19T01:55:39.834Z,58.63
2023-06-19T01:55:55.966Z,58.48
2023-06-19T01:56:12.078Z,58.49
2023-06-19T01:56:28.204Z,58.65
2023-06-19T01:56:44.357Z,58.61
2023-06-19T01:57:00.516Z,58.65
2023-06-19T01:57:16.656Z,58.89
2023-06-19T01:57:32.785Z,58.91
2023-06-19T01:57:48.990Z,58.64
2023-06-19T01:58:05.098Z,58.57
2023-06-19T01:58:21.241Z,58.21
2023-06-19T01:58:37.379Z,58.21
2023-06-19T01:58:53.520Z,58.26
2023-06-19T01:59:09.679Z,58.34
2023-06-19T01:59:25.819Z,57.87
2023-06-19T01:59:41.966Z,57.88
2023-06-19T01:59:58.092Z,58.06
2023-06-19T02:00:14.237Z,58.24
2023-06-19T02:00:30.444Z,58.18
2023-06-19T02:00:46.513Z,58.17
2023-06-19T02:01:02.713Z,58.09
2023-06-19T02:01:18.828Z,58.08
2023-06-19T02:01:34.974Z,58.15
2023-06-19T02:01:51.288Z,57.81
2023-06-19T02:02:07.267Z,57.74
2023-06-19T02:02:23.457Z,57.75
2023-06-19T02:02:39.600Z,57.97
2023-06-19T02:02:55.784Z,57.81
2023-06-19T02:03:11.919Z,58.06
2023-06-19T02:03:28.072Z,58.07
2023-06-19T02:03:44.214Z,58.23
2023-06-19T02:04:00.403Z,58.16
2023-06-19T02:04:16.432Z,58.11
2023-06-19T02:04:32.580Z,58.13
2023-06-19T02:04:48.739Z,58.46
2023-06-19T02:05:04.854Z,58.51
2023-06-19T02:05:20.999Z,58.45
2023-06-19T02:05:37.156Z,58.38
2023-06-19T02:05:53.310Z,58.59
2023-06-19T02:06:09.475Z,58.48
2023-06-19T02:06:25.576Z,58.3
2023-06-19T02:06:41.739Z,58.07
2023-06-19T02:06:57.887Z,58.14
2023-06-19T02:07:14.027Z,58.23
2023-06-19T02:07:30.193Z,58.23
2023-06-19T02:07:46.327Z,58.3
2023-06-19T02:08:02.460Z,58.5
2023-06-19T02:08:18.613Z,58.32
2023-06-19T02:08:34.759Z,58.55
2023-06-19T02:08:50.886Z,58.54
2023-06-19T02:09:07.053Z,58.43
2023-06-19T02:09:23.215Z,58.4
2023-06-19T02:09:39.360Z,58.49
2023-06-19T02:09:55.469Z,58.6
2023-06-19T02:10:11.632Z,58.67
2023-06-19T02:10:27.782Z,58.51
2023-06-19T02:10:43.924Z,58.47
2023-06-19T02:11:00.127Z,58.45
2023-06-19T02:11:16.238Z,58.65
2023-06-19T02:11:32.360Z,58.66
2023-06-19T02:11:48.556Z,58.58
2023-06-19T02:12:04.647Z,58.59
2023-06-19T02:12:20.795Z,58.63
2023-06-19T02:12:37.166Z,58.68
2023-06-19T02:12:53.089Z,58.66
2023-06-19T02:13:09.234Z,58.6
2023-06-19T02:13:25.372Z,58.73
2023-06-19T02:13:41.520Z,58.61
2023-06-19T02:13:57.659Z,58.45
2023-06-19T02:14:13.851Z,58.33
2023-06-19T02:14:29.955Z,58.26
2023-06-19T02:14:46.158Z,58.37
2023-06-19T02:15:02.265Z,58.63
2023-06-19T02:15:18.404Z,58.47
2023-06-19T02:15:34.546Z,58.37
2023-06-19T02:15:50.704Z,58.35
2023-06-19T02:16:06.855Z,58.55
2023-06-19T02:16:23.042Z,58.61
2023-06-19T02:16:39.161Z,58.51
2023-06-19T02:16:55.280Z,58.47
2023-06-19T02:17:11.421Z,58.16
2023-06-19T02:17:27.608Z,58.18
2023-06-19T02:17:43.852Z,58.25
2023-06-19T02:17:59.867Z,58
2023-06-19T02:18:16.076Z,58.04
2023-06-19T02:18:32.137Z,58.13
2023-06-19T02:18:48.281Z,58.21
2023-06-19T02:19:04.439Z,58.52
2023-06-19T02:19:20.603Z,58.41
2023-06-19T02:19:36.724Z,58.41
2023-06-19T02:19:52.867Z,58.3
2023-06-19T02:20:09.028Z,58.25
2023-06-19T02:20:25.357Z,58.29
2023-06-19T02:20:41.298Z,58.32
2023-06-19T02:20:57.477Z,58.48
2023-06-19T02:21:14.781Z,58.23
2023-06-19T02:21:29.780Z,58.16
2023-06-19T02:21:45.925Z,58.15
2023-06-19T02:22:02.027Z,58.15
2023-06-19T02:22:18.166Z,58.15
2023-06-19T02:22:34.328Z,58.18
2023-06-19T02:22:50.478Z,58.37
2023-06-19T02:23:06.627Z,58.45
2023-06-19T02:23:22.762Z,58.66
2023-06-19T02:23:38.938Z,58.69
2023-06-19T02:23:55.095Z,58.77
2023-06-19T02:24:11.219Z,58.68
2023-06-19T02:24:27.357Z,58.63
2023-06-19T02:24:43.565Z,58.58
2023-06-19T02:24:59.734Z,58.48
2023-06-19T02:25:15.787Z,58.41
2023-06-19T02:25:31.930Z,58.45
2023-06-19T02:25:48.069Z,58.65
2023-06-19T02:26:15.513Z,58.97
2023-06-19T02:26:31.660Z,58.82
2023-06-19T02:26:47.787Z,58.69
2023-06-19T02:27:03.954Z,58.67
2023-06-19T02:27:20.143Z,58.45
2023-06-19T02:27:36.231Z,58.38
2023-06-19T02:27:52.380Z,58.43
2023-06-19T02:28:08.540Z,58.37
2023-06-19T02:28:24.678Z,58.35
2023-06-19T02:28:40.813Z,58.41
2023-06-19T02:28:56.955Z,58.59
2023-06-19T02:29:13.117Z,58.64
2023-06-19T02:29:29.234Z,58.62
2023-06-19T02:29:45.380Z,58.66
2023-06-19T02:30:01.547Z,58.87
2023-06-19T02:30:17.718Z,58.8
2023-06-19T02:30:33.842Z,58.81
2023-06-19T02:30:50.020Z,58.94
2023-06-19T02:31:06.108Z,58.77
2023-06-19T02:31:22.282Z,58.78
2023-06-19T02:31:38.411Z,58.63
2023-06-19T02:31:54.563Z,58.61
2023-06-19T02:32:10.752Z,58.6
2023-06-19T02:32:26.941Z,58.7
2023-06-19T02:32:43.064Z,58.68
2023-06-19T02:32:59.254Z,58.53
2023-06-19T02:33:15.314Z,58.46
2023-06-19T02:33:31.426Z,58.77
2023-06-19T02:33:47.606Z,58.83
2023-06-19T02:34:03.723Z,58.92
2023-06-19T02:34:19.857Z,58.9
2023-06-19T02:34:35.999Z,58.89
2023-06-19T02:34:52.146Z,58.67
2023-06-19T02:35:08.299Z,58.52
2023-06-19T02:35:24.475Z,58.65
2023-06-19T02:35:40.621Z,58.4
2023-06-19T02:35:56.741Z,58.3
2023-06-19T02:36:12.895Z,58.33
2023-06-19T02:36:28.950Z,58.3
2023-06-19T02:36:45.172Z,58.61
2023-06-19T02:37:01.317Z,58.62
2023-06-19T02:37:17.479Z,58.62
2023-06-19T02:37:33.626Z,58.58
2023-06-19T02:37:49.746Z,58.36
2023-06-19T02:38:05.901Z,58.4
2023-06-19T02:38:22.037Z,58.32
2023-06-19T02:38:38.189Z,58.34
2023-06-19T02:38:54.372Z,58.58
2023-06-19T02:39:10.483Z,58.76
2023-06-19T02:39:26.665Z,58.76
2023-06-19T02:39:42.774Z,58.74
2023-06-19T02:39:58.950Z,58.7
2023-06-19T02:40:15.094Z,58.62
2023-06-19T02:40:31.265Z,58.57
2023-06-19T02:40:47.362Z,58.66
2023-06-19T02:41:03.491Z,58.36
2023-06-19T02:41:19.652Z,58.37
2023-06-19T02:41:35.774Z,58.39
2023-06-19T02:41:51.945Z,58.5
2023-06-19T02:42:08.120Z,58.55
2023-06-19T02:42:24.287Z,58.53
2023-06-19T02:42:40.363Z,58.34
2023-06-19T02:42:56.553Z,58.41
2023-06-19T02:43:12.659Z,58.44
2023-06-19T02:43:28.832Z,58.72
2023-06-19T02:43:44.964Z,58.93
2023-06-19T02:44:01.112Z,58.54
2023-06-19T02:44:17.260Z,58.64
2023-06-19T02:44:33.393Z,58.43
2023-06-19T02:44:49.571Z,58.42
2023-06-19T02:45:05.694Z,58.41
2023-06-19T02:45:21.848Z,58.44
2023-06-19T02:45:38.032Z,58.72
2023-06-19T02:45:54.172Z,58.76
2023-06-19T02:46:13.109Z,58.78
2023-06-19T02:46:26.454Z,58.66
2023-06-19T02:46:42.581Z,58.74
2023-06-19T02:46:58.739Z,59.17
2023-06-19T02:47:14.891Z,58.77
2023-06-19T02:47:31.069Z,58.62
2023-06-19T02:47:47.192Z,58.62
2023-06-19T02:48:03.367Z,58.62
2023-06-19T02:48:19.424Z,58.98
2023-06-19T02:48:35.594Z,58.86
2023-06-19T02:48:51.744Z,58.86
2023-06-19T02:49:07.877Z,58.75
2023-06-19T02:49:24.030Z,58.94
2023-06-19T02:49:40.176Z,58.81
2023-06-19T02:49:56.348Z,59.11
2023-06-19T02:50:12.456Z,58.78
2023-06-19T02:50:28.610Z,58.67
2023-06-19T02:50:44.731Z,58.85
2023-06-19T02:51:00.926Z,58.76
2023-06-19T02:51:17.034Z,58.63
2023-06-19T02:51:33.179Z,58.7
2023-06-19T02:51:49.318Z,58.87
2023-06-19T02:52:05.464Z,58.88
2023-06-19T02:52:21.605Z,58.84
2023-06-19T02:52:37.775Z,58.87
2023-06-19T02:52:53.924Z,58.94
2023-06-19T02:53:10.098Z,58.96
2023-06-19T02:53:26.210Z,58.8
2023-06-19T02:53:42.331Z,58.83
2023-06-19T02:53:58.486Z,59
2023-06-19T02:54:14.632Z,58.94
2023-06-19T02:54:30.788Z,58.89
2023-06-19T02:54:46.937Z,59.01
2023-06-19T02:55:02.984Z,59
2023-06-19T02:55:19.211Z,59.33
2023-06-19T02:55:35.373Z,59.13
2023-06-19T02:55:51.506Z,59.11
2023-06-19T02:56:07.704Z,59.12
2023-06-19T02:56:23.793Z,59.13
2023-06-19T02:56:39.965Z,59.18
2023-06-19T02:56:56.117Z,59.26
2023-06-19T02:57:12.246Z,59.32
2023-06-19T02:57:28.403Z,59.24
2023-06-19T02:57:44.527Z,59.15
2023-06-19T02:58:00.697Z,59.19
2023-06-19T02:58:16.829Z,59.04
2023-06-19T02:58:32.963Z,59.39
2023-06-19T02:58:49.115Z,59.48
2023-06-19T02:59:05.269Z,59.66
2023-06-19T02:59:21.420Z,59.55
2023-06-19T02:59:37.543Z,59.54
2023-06-19T02:59:53.710Z,59.39
2023-06-19T03:00:09.834Z,59.22
2023-06-19T03:00:26.495Z,59.33
2023-06-19T03:00:42.144Z,59.28
2023-06-19T03:00:58.328Z,59.22
2023-06-19T03:01:14.482Z,59.19
2023-06-19T03:01:30.634Z,59.15
2023-06-19T03:01:46.732Z,59.07
2023-06-19T03:02:02.851Z,59
2023-06-19T03:02:19.296Z,59.11
2023-06-19T03:02:35.281Z,59.27
2023-06-19T03:02:51.349Z,59.13
2023-06-19T03:03:07.518Z,59.16
2023-06-19T03:03:23.676Z,59.17
2023-06-19T03:03:40.020Z,59.39
2023-06-19T03:03:55.886Z,59.57
2023-06-19T03:04:12.037Z,59.22
2023-06-19T03:04:29.603Z,59.07
2023-06-19T03:04:44.314Z,59.11
2023-06-19T03:05:00.475Z,59.11
2023-06-19T03:05:16.610Z,59.38
2023-06-19T03:05:32.747Z,59.35
2023-06-19T03:05:48.882Z,59.38
2023-06-19T03:06:05.032Z,59.28
2023-06-19T03:06:21.200Z,59.26
2023-06-19T03:06:37.346Z,59.17
2023-06-19T03:06:53.480Z,59.19
2023-06-19T03:07:09.624Z,59.22
2023-06-19T03:07:25.773Z,59.34
2023-06-19T03:07:41.943Z,59.56
2023-06-19T03:07:58.049Z,59.42
2023-06-19T03:08:14.218Z,59.75
2023-06-19T03:08:30.400Z,59.54
2023-06-19T03:08:46.499Z,59.56
2023-06-19T03:09:02.657Z,59.54
2023-06-19T03:09:18.776Z,59.59
2023-06-19T03:09:34.946Z,59.6
2023-06-19T03:09:51.111Z,59.55
2023-06-19T03:10:07.216Z,59.52
2023-06-19T03:10:23.773Z,59.59
2023-06-19T03:10:39.513Z,59.7
2023-06-19T03:10:55.658Z,59.87
2023-06-19T03:11:11.802Z,59.98
2023-06-19T03:11:27.943Z,59.81
2023-06-19T03:11:44.093Z,59.76
2023-06-19T03:12:00.264Z,59.71
2023-06-19T03:12:16.407Z,59.95
2023-06-19T03:12:32.532Z,59.92
2023-06-19T03:12:48.681Z,59.88
2023-06-19T03:13:04.867Z,59.92
2023-06-19T03:13:20.965Z,60
2023-06-19T03:13:37.108Z,59.92
2023-06-19T03:13:53.293Z,59.91
2023-06-19T03:14:09.404Z,59.88
2023-06-19T03:14:25.553Z,59.85
2023-06-19T03:14:41.698Z,59.86
2023-06-19T03:14:57.840Z,59.84
2023-06-19T03:15:13.974Z,59.8
2023-06-19T03:15:30.140Z,59.82
2023-06-19T03:15:46.272Z,59.8
2023-06-19T03:16:02.437Z,59.8
2023-06-19T03:16:18.586Z,59.79
2023-06-19T03:16:34.739Z,59.74
2023-06-19T03:16:50.906Z,59.67
2023-06-19T03:17:07.115Z,59.69
2023-06-19T03:17:23.208Z,59.65
2023-06-19T03:17:39.377Z,59.66
2023-06-19T03:17:55.479Z,59.74
2023-06-19T03:18:11.592Z,59.89
2023-06-19T03:18:27.775Z,59.58
2023-06-19T03:18:43.882Z,59.56
2023-06-19T03:19:00.066Z,59.6
2023-06-19T03:19:16.196Z,59.6
2023-06-19T03:19:32.319Z,59.51
2023-06-19T03:19:48.458Z,59.4
2023-06-19T03:20:15.919Z,59.53
2023-06-19T03:20:32.055Z,59.63
2023-06-19T03:20:48.177Z,59.63
2023-06-19T03:21:04.334Z,59.5
2023-06-19T03:21:20.485Z,59.42
2023-06-19T03:21:36.693Z,59.29
2023-06-19T03:21:52.786Z,59.29
2023-06-19T03:22:08.916Z,59.45
2023-06-19T03:22:25.073Z,59.35
2023-06-19T03:22:41.199Z,59.34
2023-06-19T03:22:57.339Z,59.25
2023-06-19T03:23:13.508Z,59.3
2023-06-19T03:23:29.642Z,59.14
2023-06-19T03:23:45.798Z,59.19
2023-06-19T03:24:02.032Z,59.14
2023-06-19T03:24:18.134Z,59.1
2023-06-19T03:24:34.340Z,59.08
2023-06-19T03:24:50.373Z,59.15
2023-06-19T03:25:06.512Z,59.24
2023-06-19T03:25:22.647Z,59.14
2023-06-19T03:25:38.802Z,59.14
2023-06-19T03:25:54.956Z,59.15
2023-06-19T03:26:11.115Z,59.13
2023-06-19T03:26:27.272Z,59
2023-06-19T03:26:43.387Z,59.14
2023-06-19T03:26:59.576Z,59.22
2023-06-19T03:27:15.707Z,59.2
2023-06-19T03:27:31.879Z,59.29
2023-06-19T03:27:48.011Z,59.29
2023-06-19T03:28:04.136Z,58.97
2023-06-19T03:28:20.271Z,58.87
2023-06-19T03:28:36.400Z,58.85
2023-06-19T03:28:52.556Z,58.86
2023-06-19T03:29:08.694Z,58.89
2023-06-19T03:29:24.762Z,59.07
2023-06-19T03:29:41.005Z,59.13